Time;durP1;ratioP1;P1;durP2;ratioP2;P2;SDS_P1;SDS_P2;PMS_P1;PMS_P2;Temp;Humidity;BMP_temperature;BMP_pressure;BME280_temperature;BME280_humidity;BME280_pressure;Samples;Min_cycle;Max_cycle;Signal;HPM_P1;HPM_P2
2021/04/16 00:01:10;;;;;;;8.10;1.37;;;;;;;;;;4108185;34;20302;-78
2021/04/16 00:03:39;;;;;;;7.78;0.82;;;;;;;;;;4106867;34;20097;-80
2021/04/16 00:06:08;;;;;;;8.70;1.10;;;;;;;;;;4104771;34;20135;-78
2021/04/16 00:08:38;;;;;;;6.35;1.25;;;;;;;;;;4108477;34;20061;-79
2021/04/16 00:11:13;;;;;;;9.95;1.45;;;;;;;;;;4108735;34;20116;-77
2021/04/16 00:13:42;;;;;;;6.15;0.93;;;;;;;;;;4111067;34;20049;-78
2021/04/16 00:16:15;;;;;;;7.55;0.80;;;;;;;;;;4109741;34;20139;-78
2021/04/16 00:18:44;;;;;;;7.15;0.93;;;;;;;;;;4105982;34;20069;-80
2021/04/16 00:21:13;;;;;;;6.37;0.90;;;;;;;;;;4102412;34;20648;-79
2021/04/16 00:23:42;;;;;;;5.85;0.88;;;;;;;;;;4098834;34;20419;-79
2021/04/16 00:26:11;;;;;;;7.10;0.90;;;;;;;;;;4099719;34;20189;-79
2021/04/16 00:28:43;;;;;;;7.40;1.27;;;;;;;;;;4092685;34;20154;-81
2021/04/16 00:31:13;;;;;;;6.20;1.20;;;;;;;;;;4098762;34;20129;-79
2021/04/16 00:33:41;;;;;;;7.15;1.05;;;;;;;;;;4104041;34;20073;-78
2021/04/16 00:36:10;;;;;;;7.95;1.00;;;;;;;;;;4103367;34;20160;-80
2021/04/16 00:38:38;;;;;;;4.10;0.88;;;;;;;;;;4104569;34;20060;-79
2021/04/16 00:41:08;;;;;;;8.05;1.17;;;;;;;;;;4098684;34;20124;-79
2021/04/16 00:43:37;;;;;;;4.72;1.00;;;;;;;;;;4106559;34;20529;-78
2021/04/16 00:46:05;;;;;;;7.72;1.40;;;;;;;;;;4105948;34;20108;-78
2021/04/16 00:48:36;;;;;;;8.38;1.12;;;;;;;;;;4100147;34;20069;-79
2021/04/16 00:51:06;;;;;;;8.75;1.05;;;;;;;;;;4097553;34;20888;-79
2021/04/16 00:53:35;;;;;;;4.53;1.25;;;;;;;;;;4108834;34;20137;-78
2021/04/16 00:56:03;;;;;;;5.95;1.00;;;;;;;;;;4099906;34;20155;-79
2021/04/16 00:58:32;;;;;;;7.45;0.90;;;;;;;;;;4102723;34;20123;-79
2021/04/16 01:01:01;;;;;;;9.18;1.02;;;;;;;;;;4105702;34;20135;-79
2021/04/16 01:03:30;;;;;;;10.57;1.42;;;;;;;;;;4102886;34;20127;-78
2021/04/16 01:06:01;;;;;;;6.20;1.37;;;;;;;;;;4100071;34;20050;-79
2021/04/16 01:08:30;;;;;;;9.50;1.23;;;;;;;;;;4099790;34;20120;-78
2021/04/16 01:10:58;;;;;;;7.25;1.30;;;;;;;;;;4099721;34;20124;-79
2021/04/16 01:13:27;;;;;;;6.62;1.10;;;;;;;;;;4092082;34;20148;-79
2021/04/16 01:16:01;;;;;;;7.00;1.30;;;;;;;;;;4104769;34;20053;-80
2021/04/16 01:18:40;;;;;;;7.18;1.40;;;;;;;;;;4102185;34;20122;-79
2021/04/16 01:21:11;;;;;;;8.55;1.30;;;;;;;;;;4099460;34;20544;-80
2021/04/16 01:23:57;;;;;;;7.45;1.20;;;;;;;;;;4106816;34;20182;-78
2021/04/16 01:26:28;;;;;;;6.03;1.05;;;;;;;;;;4103860;34;20062;-79
2021/04/16 01:28:56;;;;;;;6.05;0.90;;;;;;;;;;4106458;34;20108;-77
2021/04/16 01:31:28;;;;;;;6.90;0.80;;;;;;;;;;4103004;34;20127;-78
2021/04/16 01:33:57;;;;;;;4.57;0.80;;;;;;;;;;4110631;34;20514;-79
2021/04/16 01:36:27;;;;;;;9.85;1.37;;;;;;;;;;4112040;34;20152;-78
2021/04/16 01:38:57;;;;;;;9.90;1.37;;;;;;;;;;4106220;34;20052;-80
2021/04/16 01:41:26;;;;;;;7.72;1.10;;;;;;;;;;4099246;34;20205;-78
2021/04/16 01:44:05;;;;;;;7.72;0.90;;;;;;;;;;4107006;34;20061;-79
2021/04/16 01:46:49;;;;;;;4.68;0.90;;;;;;;;;;4110103;34;20904;-80
2021/04/16 01:49:17;;;;;;;9.30;1.00;;;;;;;;;;4097671;34;20100;-78
2021/04/16 01:51:46;;;;;;;6.37;1.10;;;;;;;;;;4104791;34;20093;-78
2021/04/16 01:54:16;;;;;;;7.43;1.52;;;;;;;;;;4109717;34;20122;-78
2021/04/16 01:56:46;;;;;;;7.72;1.20;;;;;;;;;;4104595;34;20553;-79
2021/04/16 01:59:16;;;;;;;4.72;1.25;;;;;;;;;;4099703;34;20075;-79
2021/04/16 02:01:44;;;;;;;7.55;1.00;;;;;;;;;;4110237;34;20101;-78
2021/04/16 02:04:14;;;;;;;9.98;0.90;;;;;;;;;;4110162;34;20057;-79
2021/04/16 02:06:42;;;;;;;5.05;0.98;;;;;;;;;;4109853;34;21090;-79
2021/04/16 02:09:16;;;;;;;7.40;0.90;;;;;;;;;;4101887;34;20717;-78
2021/04/16 02:11:44;;;;;;;7.40;1.52;;;;;;;;;;4110311;34;20053;-78
2021/04/16 02:14:14;;;;;;;6.50;1.00;;;;;;;;;;4109506;34;20069;-79
2021/04/16 02:16:43;;;;;;;5.32;0.93;;;;;;;;;;4108523;34;20117;-79
2021/04/16 02:19:13;;;;;;;6.32;0.82;;;;;;;;;;4101223;34;20134;-80
2021/04/16 02:21:42;;;;;;;5.78;0.70;;;;;;;;;;4109093;34;20076;-80
2021/04/16 02:24:11;;;;;;;2.15;0.57;;;;;;;;;;4116177;34;20045;-79
2021/04/16 02:26:39;;;;;;;6.80;1.10;;;;;;;;;;4106633;34;20236;-78
2021/04/16 02:29:09;;;;;;;5.25;0.95;;;;;;;;;;4101324;34;20468;-78
2021/04/16 02:31:42;;;;;;;5.68;0.90;;;;;;;;;;4111593;34;20446;-79
2021/04/16 02:34:17;;;;;;;4.25;1.00;;;;;;;;;;4109871;34;20097;-80
2021/04/16 02:36:46;;;;;;;4.78;0.77;;;;;;;;;;4103637;34;20422;-79
2021/04/16 02:39:14;;;;;;;5.03;0.80;;;;;;;;;;4103325;34;20069;-80
2021/04/16 02:41:43;;;;;;;4.37;0.85;;;;;;;;;;4102775;34;20450;-80
2021/04/16 02:44:12;;;;;;;5.87;1.00;;;;;;;;;;4111384;34;20540;-79
2021/04/16 02:46:41;;;;;;;4.15;0.70;;;;;;;;;;4100037;34;20074;-78
2021/04/16 02:49:09;;;;;;;7.45;0.90;;;;;;;;;;4102216;34;20362;-79
2021/04/16 02:51:37;;;;;;;6.75;0.98;;;;;;;;;;4109444;34;20112;-78
2021/04/16 02:54:06;;;;;;;6.25;0.95;;;;;;;;;;4111387;34;20402;-78
2021/04/16 02:56:35;;;;;;;3.00;0.82;;;;;;;;;;4098920;34;20195;-81
2021/04/16 02:59:03;;;;;;;5.62;1.20;;;;;;;;;;4100262;34;20097;-79
2021/04/16 03:01:32;;;;;;;6.97;1.00;;;;;;;;;;4106037;34;20139;-78
2021/04/16 03:04:00;;;;;;;5.78;1.10;;;;;;;;;;4100345;34;20618;-78
2021/04/16 03:06:29;;;;;;;4.25;0.85;;;;;;;;;;4102556;34;20219;-78
2021/04/16 03:08:59;;;;;;;3.72;0.90;;;;;;;;;;4097026;34;20046;-79
2021/04/16 03:11:27;;;;;;;3.40;0.85;;;;;;;;;;4455222;29;20072;-79
2021/04/16 03:13:56;;;;;;;5.15;0.98;;;;;;;;;;4129546;34;20143;-78
2021/04/16 03:16:26;;;;;;;7.07;1.17;;;;;;;;;;4138948;34;21722;-77
2021/04/16 03:18:57;;;;;;;6.93;1.37;;;;;;;;;;4135947;34;20061;-78
2021/04/16 03:21:26;;;;;;;3.72;0.98;;;;;;;;;;4147469;29;20257;-84
2021/04/16 03:23:55;;;;;;;6.35;1.08;;;;;;;;;;4139304;34;20048;-83
2021/04/16 03:26:24;;;;;;;5.32;0.98;;;;;;;;;;4147931;34;20493;-84
2021/04/16 03:28:54;;;;;;;7.05;1.08;;;;;;;;;;4147402;34;20109;-83
2021/04/16 03:31:24;;;;;;;5.28;1.20;;;;;;;;;;4151231;34;20052;-84
2021/04/16 03:33:54;;;;;;;6.22;1.00;;;;;;;;;;4144765;34;21317;-84
2021/04/16 03:36:23;;;;;;;5.57;1.02;;;;;;;;;;4147343;34;20094;-83
2021/04/16 03:38:51;;;;;;;3.97;1.17;;;;;;;;;;4149911;34;20128;-84
2021/04/16 03:41:19;;;;;;;4.50;1.00;;;;;;;;;;4151600;34;20056;-84
2021/04/16 03:43:48;;;;;;;5.60;1.05;;;;;;;;;;4140549;34;20087;-83
2021/04/16 03:46:19;;;;;;;2.92;1.00;;;;;;;;;;4144155;34;20392;-84
2021/04/16 03:48:50;;;;;;;6.15;1.20;;;;;;;;;;4150080;34;20071;-83
2021/04/16 03:51:18;;;;;;;6.82;1.08;;;;;;;;;;4146121;34;20045;-83
2021/04/16 03:53:46;;;;;;;4.47;1.10;;;;;;;;;;4138806;34;20510;-83
2021/04/16 03:56:15;;;;;;;9.68;1.62;;;;;;;;;;4152516;34;20088;-84
2021/04/16 03:58:45;;;;;;;6.30;1.20;;;;;;;;;;4152670;34;20383;-84
2021/04/16 04:01:13;;;;;;;4.97;1.15;;;;;;;;;;4147260;34;20064;-84
2021/04/16 04:03:42;;;;;;;6.57;1.35;;;;;;;;;;4137118;34;20064;-83
2021/04/16 04:06:10;;;;;;;5.85;1.05;;;;;;;;;;4152384;34;20092;-84
2021/04/16 04:08:38;;;;;;;6.68;1.40;;;;;;;;;;4150017;34;20083;-83
2021/04/16 04:11:07;;;;;;;8.90;1.30;;;;;;;;;;4142269;34;20052;-84
2021/04/16 04:13:35;;;;;;;7.95;1.20;;;;;;;;;;4144429;34;20187;-83
2021/04/16 04:16:04;;;;;;;5.55;1.30;;;;;;;;;;4153125;34;20086;-84
2021/04/16 04:18:34;;;;;;;6.93;1.20;;;;;;;;;;4152691;34;20056;-83
2021/04/16 04:21:03;;;;;;;6.78;1.30;;;;;;;;;;4147340;34;20056;-83
2021/04/16 04:23:31;;;;;;;5.70;1.50;;;;;;;;;;4147234;34;20099;-83
2021/04/16 04:26:00;;;;;;;8.15;1.48;;;;;;;;;;4139772;34;20095;-84
2021/04/16 04:28:29;;;;;;;5.65;1.23;;;;;;;;;;4147672;34;20096;-83
2021/04/16 04:30:57;;;;;;;9.40;1.42;;;;;;;;;;4140350;34;20206;-83
2021/04/16 04:33:26;;;;;;;7.68;1.25;;;;;;;;;;4141319;34;20063;-83
2021/04/16 04:35:55;;;;;;;4.97;1.17;;;;;;;;;;4149286;34;20090;-83
2021/04/16 04:38:23;;;;;;;6.68;1.35;;;;;;;;;;4146583;34;20115;-84
2021/04/16 04:40:52;;;;;;;5.82;1.00;;;;;;;;;;4143442;34;20132;-84
2021/04/16 04:43:20;;;;;;;6.93;1.35;;;;;;;;;;4145714;34;20190;-83
2021/04/16 04:45:48;;;;;;;10.15;1.70;;;;;;;;;;4150473;34;20056;-84
2021/04/16 04:48:17;;;;;;;5.37;1.15;;;;;;;;;;4148998;34;20151;-84
2021/04/16 04:50:50;;;;;;;9.02;1.45;;;;;;;;;;4141961;34;20107;-84
2021/04/16 04:53:19;;;;;;;9.83;1.70;;;;;;;;;;4149741;34;20147;-85
2021/04/16 04:55:47;;;;;;;7.03;1.20;;;;;;;;;;4150105;34;20547;-83
2021/04/16 04:58:15;;;;;;;5.62;1.37;;;;;;;;;;4151149;34;20115;-84
2021/04/16 05:00:43;;;;;;;7.90;1.50;;;;;;;;;;4133891;34;20127;-83
2021/04/16 05:03:12;;;;;;;7.70;1.00;;;;;;;;;;4154973;34;20105;-83
2021/04/16 05:05:40;;;;;;;5.15;1.08;;;;;;;;;;4151601;34;20120;-83
2021/04/16 05:08:09;;;;;;;8.88;1.20;;;;;;;;;;4156705;34;20131;-83
2021/04/16 05:10:38;;;;;;;8.55;1.37;;;;;;;;;;4146394;34;20463;-84
2021/04/16 05:13:06;;;;;;;6.55;1.25;;;;;;;;;;4133624;34;20096;-84
2021/04/16 05:15:35;;;;;;;8.27;1.30;;;;;;;;;;4155273;34;20108;-83
2021/04/16 05:18:03;;;;;;;4.20;1.02;;;;;;;;;;4152351;34;20090;-84
2021/04/16 05:20:31;;;;;;;5.03;1.15;;;;;;;;;;4156447;34;20447;-83
2021/04/16 05:23:00;;;;;;;9.07;1.20;;;;;;;;;;4152446;34;20092;-84
2021/04/16 05:25:28;;;;;;;4.85;1.20;;;;;;;;;;4149875;34;20119;-84
2021/04/16 05:27:56;;;;;;;8.07;1.08;;;;;;;;;;4144788;34;20180;-84
2021/04/16 05:30:26;;;;;;;5.37;0.98;;;;;;;;;;4154739;34;20238;-82
2021/04/16 05:32:55;;;;;;;5.85;1.35;;;;;;;;;;4143053;34;20112;-83
2021/04/16 05:35:23;;;;;;;5.65;1.48;;;;;;;;;;4154898;34;20037;-84
2021/04/16 05:37:56;;;;;;;5.90;1.45;;;;;;;;;;4145002;34;20514;-84
2021/04/16 05:40:28;;;;;;;20.12;15.45;;;;;;;;;;4155507;34;20080;-83
2021/04/16 05:42:56;;;;;;;15.45;12.77;;;;;;;;;;4151357;34;20483;-83
2021/04/16 05:45:25;;;;;;;12.43;10.77;;;;;;;;;;4145899;34;20186;-85
2021/04/16 05:47:53;;;;;;;18.25;11.75;;;;;;;;;;4145712;34;20069;-83
2021/04/16 05:50:22;;;;;;;12.85;9.70;;;;;;;;;;4151816;34;20420;-83
2021/04/16 05:52:50;;;;;;;12.93;8.88;;;;;;;;;;4144754;34;20068;-83
2021/04/16 05:55:21;;;;;;;14.40;10.93;;;;;;;;;;4148048;34;20052;-85
2021/04/16 05:57:49;;;;;;;14.25;10.23;;;;;;;;;;4140797;34;20036;-84
2021/04/16 06:00:18;;;;;;;17.45;10.27;;;;;;;;;;4151521;34;20203;-84
2021/04/16 06:02:48;;;;;;;14.38;9.68;;;;;;;;;;4153034;34;20121;-83
2021/04/16 06:05:18;;;;;;;15.90;10.63;;;;;;;;;;4148499;34;20099;-83
2021/04/16 06:07:47;;;;;;;17.73;11.15;;;;;;;;;;4147223;34;20052;-83
2021/04/16 06:10:16;;;;;;;15.40;10.45;;;;;;;;;;4155118;34;20364;-85
2021/04/16 06:12:45;;;;;;;13.45;10.50;;;;;;;;;;4153005;34;20195;-84
2021/04/16 06:15:16;;;;;;;13.27;10.13;;;;;;;;;;4141244;34;20448;-85
2021/04/16 06:17:44;;;;;;;14.00;10.70;;;;;;;;;;4147529;34;20064;-84
2021/04/16 06:20:14;;;;;;;15.25;10.93;;;;;;;;;;4155316;34;20127;-83
2021/04/16 06:22:43;;;;;;;16.25;11.45;;;;;;;;;;4145678;34;20138;-83
2021/04/16 06:25:11;;;;;;;24.15;12.60;;;;;;;;;;4144834;34;20103;-84
2021/04/16 06:27:40;;;;;;;24.85;16.92;;;;;;;;;;4154363;34;20075;-83
2021/04/16 06:30:10;;;;;;;14.68;11.82;;;;;;;;;;4157079;34;20466;-83
2021/04/16 06:32:41;;;;;;;17.85;12.90;;;;;;;;;;4139462;34;20443;-84
2021/04/16 06:35:14;;;;;;;19.50;14.52;;;;;;;;;;4149675;34;20162;-84
2021/04/16 06:37:45;;;;;;;17.27;15.45;;;;;;;;;;4149090;34;20840;-83
2021/04/16 06:40:16;;;;;;;32.00;29.10;;;;;;;;;;4151805;34;20111;-84
2021/04/16 06:42:49;;;;;;;28.33;25.83;;;;;;;;;;4146540;34;20191;-84
2021/04/16 06:45:23;;;;;;;26.52;23.62;;;;;;;;;;4144769;34;20517;-83
2021/04/16 06:47:59;;;;;;;28.23;24.87;;;;;;;;;;4154646;34;20111;-83
2021/04/16 06:50:32;;;;;;;34.17;31.45;;;;;;;;;;4155617;34;20133;-83
2021/04/16 06:53:06;;;;;;;32.10;29.15;;;;;;;;;;4143502;34;20138;-83
2021/04/16 06:55:49;;;;;;;32.72;29.50;;;;;;;;;;4149685;34;20076;-83
2021/04/16 06:58:25;;;;;;;31.70;28.95;;;;;;;;;;4151178;34;20052;-83
2021/04/16 07:01:15;;;;;;;32.28;29.58;;;;;;;;;;4143679;34;20073;-84
2021/04/16 07:03:48;;;;;;;33.38;30.30;;;;;;;;;;4128233;34;20138;-84
2021/04/16 07:06:19;;;;;;;28.92;26.20;;;;;;;;;;4153596;34;20087;-84
2021/04/16 07:09:12;;;;;;;17.58;15.70;;;;;;;;;;4140753;34;20126;-84
2021/04/16 07:11:44;;;;;;;17.40;15.40;;;;;;;;;;4141888;34;20160;-84
2021/04/16 07:14:46;;;;;;;26.90;24.50;;;;;;;;;;4146742;34;20061;-84
2021/04/16 07:17:20;;;;;;;34.03;30.85;;;;;;;;;;4118677;34;20083;-85
2021/04/16 07:19:51;;;;;;;21.37;19.27;;;;;;;;;;4152991;34;20127;-85
2021/04/16 07:22:41;;;;;;;6.57;2.87;;;;;;;;;;4130369;34;20053;-84
2021/04/16 07:25:21;;;;;;;9.45;1.90;;;;;;;;;;4150106;34;20096;-84
2021/04/16 07:27:56;;;;;;;10.32;1.58;;;;;;;;;;4150661;34;20393;-84
2021/04/16 07:30:32;;;;;;;27.27;24.48;;;;;;;;;;4141186;34;20154;-84
2021/04/16 07:33:02;;;;;;;28.98;26.02;;;;;;;;;;4141655;34;20156;-83
2021/04/16 07:35:35;;;;;;;19.02;16.77;;;;;;;;;;4144642;34;20112;-83
2021/04/16 07:38:23;;;;;;;21.48;19.48;;;;;;;;;;4152261;34;20073;-83
2021/04/16 07:41:14;;;;;;;27.37;24.67;;;;;;;;;;4139444;34;20131;-84
2021/04/16 07:43:51;;;;;;;22.87;20.77;;;;;;;;;;4149562;34;20068;-84
2021/04/16 07:46:32;;;;;;;9.55;1.42;;;;;;;;;;4142170;34;20175;-83
2021/04/16 07:49:13;;;;;;;11.95;5.20;;;;;;;;;;4143169;34;20214;-83
2021/04/16 07:51:47;;;;;;;36.60;33.33;;;;;;;;;;4145286;34;20123;-83
2021/04/16 07:54:17;;;;;;;8.85;1.67;;;;;;;;;;4145022;34;20067;-83
2021/04/16 07:56:49;;;;;;;41.45;37.78;;;;;;;;;;4148926;34;20129;-84
2021/04/16 07:59:20;;;;;;;8.27;3.40;;;;;;;;;;4135570;34;20546;-83
2021/04/16 08:01:51;;;;;;;5.28;1.17;;;;;;;;;;4147727;34;20121;-85
2021/04/16 08:04:22;;;;;;;34.15;31.23;;;;;;;;;;4145880;34;20217;-85
2021/04/16 08:06:54;;;;;;;8.30;1.50;;;;;;;;;;4152083;34;20109;-85
2021/04/16 08:09:25;;;;;;;4.25;1.10;;;;;;;;;;4154198;34;20145;-84
2021/04/16 08:12:01;;;;;;;6.65;1.20;;;;;;;;;;4154769;34;20121;-84
2021/04/16 08:14:33;;;;;;;7.30;1.40;;;;;;;;;;4155810;34;20064;-85
2021/04/16 08:17:05;;;;;;;5.95;1.30;;;;;;;;;;4153099;34;20052;-84
2021/04/16 08:19:37;;;;;;;6.62;1.35;;;;;;;;;;4153594;34;20072;-85
2021/04/16 08:22:10;;;;;;;7.03;1.40;;;;;;;;;;4142382;34;20147;-85
2021/04/16 08:24:45;;;;;;;3.12;1.08;;;;;;;;;;4155896;34;20028;-85
2021/04/16 08:27:13;;;;;;;5.40;1.30;;;;;;;;;;4151676;34;20072;-84
2021/04/16 08:29:47;;;;;;;4.75;1.30;;;;;;;;;;4151160;34;20104;-85
2021/04/16 08:32:30;;;;;;;7.57;1.30;;;;;;;;;;4151284;34;20060;-84
2021/04/16 08:35:00;;;;;;;3.10;0.95;;;;;;;;;;4153380;34;20117;-84
2021/04/16 08:37:35;;;;;;;4.50;1.05;;;;;;;;;;4147330;34;20072;-84
2021/04/16 08:40:08;;;;;;;10.05;5.18;;;;;;;;;;4147979;34;20087;-84
2021/04/16 08:42:39;;;;;;;6.10;1.17;;;;;;;;;;4153104;34;20068;-84
2021/04/16 08:45:22;;;;;;;9.93;7.53;;;;;;;;;;4138097;34;20075;-83
2021/04/16 08:47:53;;;;;;;6.03;1.30;;;;;;;;;;4155446;34;20119;-83
2021/04/16 08:50:27;;;;;;;5.28;1.17;;;;;;;;;;4151971;34;20072;-83
2021/04/16 08:53:00;;;;;;;9.80;1.17;;;;;;;;;;4151035;34;20592;-84
2021/04/16 08:55:35;;;;;;;4.43;1.50;;;;;;;;;;4153788;34;20052;-84
2021/04/16 08:58:09;;;;;;;4.43;0.98;;;;;;;;;;4152157;34;20108;-83
2021/04/16 09:00:41;;;;;;;5.78;1.08;;;;;;;;;;4138846;34;20068;-83
2021/04/16 09:03:38;;;;;;;5.55;1.12;;;;;;;;;;4153928;34;20065;-85
2021/04/16 09:06:25;;;;;;;5.03;1.20;;;;;;;;;;4142879;34;20103;-83
2021/04/16 09:08:56;;;;;;;7.32;1.17;;;;;;;;;;4153372;34;20056;-84
2021/04/16 09:11:46;;;;;;;7.70;1.42;;;;;;;;;;4154909;34;20128;-82
2021/04/16 09:14:16;;;;;;;5.57;1.05;;;;;;;;;;4150142;34;20138;-83
2021/04/16 09:16:47;;;;;;;7.10;1.33;;;;;;;;;;4150250;34;20048;-83
2021/04/16 09:19:23;;;;;;;2.87;1.00;;;;;;;;;;4154250;34;20131;-83
2021/04/16 09:22:03;;;;;;;18.67;16.83;;;;;;;;;;4152631;34;20061;-83
2021/04/16 09:24:42;;;;;;;19.73;17.85;;;;;;;;;;4152643;34;20084;-83
2021/04/16 09:27:31;;;;;;;5.45;2.05;;;;;;;;;;4150733;34;20512;-84
2021/04/16 09:30:08;;;;;;;4.97;1.50;;;;;;;;;;4152075;34;20128;-85
2021/04/16 09:32:42;;;;;;;5.40;1.40;;;;;;;;;;4151060;34;20091;-83
2021/04/16 09:35:33;;;;;;;5.87;1.27;;;;;;;;;;4150936;34;20831;-84
2021/04/16 09:38:19;;;;;;;5.30;1.15;;;;;;;;;;4152756;34;20129;-83
2021/04/16 09:41:06;;;;;;;4.53;1.30;;;;;;;;;;4152063;34;20118;-83
2021/04/16 09:43:37;;;;;;;3.35;1.15;;;;;;;;;;4153682;34;20097;-84
2021/04/16 09:46:27;;;;;;;5.25;1.30;;;;;;;;;;4147314;34;20103;-84
2021/04/16 09:48:55;;;;;;;4.75;1.30;;;;;;;;;;4149459;34;20632;-83
2021/04/16 09:51:32;;;;;;;5.53;1.42;;;;;;;;;;4153749;34;20064;-83
2021/04/16 09:54:09;;;;;;;5.07;1.50;;;;;;;;;;4144308;34;20083;-84
2021/04/16 09:56:59;;;;;;;8.20;1.40;;;;;;;;;;4154224;34;20045;-83
2021/04/16 09:59:30;;;;;;;6.95;1.70;;;;;;;;;;4154046;34;20134;-83
2021/04/16 10:02:12;;;;;;;7.60;1.52;;;;;;;;;;4154601;34;20446;-84
2021/04/16 10:04:49;;;;;;;4.18;1.27;;;;;;;;;;4146651;34;20128;-83
2021/04/16 10:07:19;;;;;;;6.50;1.60;;;;;;;;;;4147851;34;20114;-83
2021/04/16 10:09:51;;;;;;;5.95;1.90;;;;;;;;;;4155274;34;20123;-83
2021/04/16 10:12:29;;;;;;;5.03;1.62;;;;;;;;;;4153044;34;20048;-84
2021/04/16 10:15:14;;;;;;;5.28;1.70;;;;;;;;;;4155033;34;20412;-84
2021/04/16 10:17:54;;;;;;;3.20;1.45;;;;;;;;;;4154433;34;20059;-83
2021/04/16 10:20:26;;;;;;;5.25;1.42;;;;;;;;;;4148097;34;20433;-84
2021/04/16 10:23:26;;;;;;;5.57;1.35;;;;;;;;;;4155843;34;20065;-83
2021/04/16 12:38:17;;;;;;;5.78;1.75;;;;;;;;;;4153934;34;20108;-84
2021/04/16 12:40:45;;;;;;;7.18;1.73;;;;;;;;;;4153661;34;20071;-85
2021/04/16 12:43:14;;;;;;;6.47;1.87;;;;;;;;;;4151912;34;20064;-84
2021/04/16 12:45:44;;;;;;;5.50;1.60;;;;;;;;;;4153832;34;20218;-84
2021/04/16 12:48:12;;;;;;;7.53;2.03;;;;;;;;;;4153257;34;20060;-84
2021/04/16 12:50:41;;;;;;;7.57;1.77;;;;;;;;;;4154609;34;20144;-84
2021/04/16 12:53:09;;;;;;;7.78;1.65;;;;;;;;;;4156605;34;20045;-83
2021/04/16 12:55:38;;;;;;;6.32;1.70;;;;;;;;;;4151484;34;20044;-84
2021/04/16 12:58:08;;;;;;;7.55;1.67;;;;;;;;;;4149203;34;20170;-84
2021/04/16 13:00:38;;;;;;;9.23;1.95;;;;;;;;;;4150393;34;20150;-84
2021/04/16 13:03:06;;;;;;;7.30;1.20;;;;;;;;;;4149031;34;20049;-84
2021/04/16 13:05:35;;;;;;;10.05;1.73;;;;;;;;;;4148400;34;20098;-84
2021/04/16 13:08:05;;;;;;;5.18;1.58;;;;;;;;;;4147552;34;20122;-84
2021/04/16 13:10:34;;;;;;;7.07;1.60;;;;;;;;;;4152971;34;20201;-85
2021/04/16 13:13:04;;;;;;;8.68;1.83;;;;;;;;;;4145203;34;20213;-83
2021/04/16 13:15:33;;;;;;;7.10;1.58;;;;;;;;;;4144675;34;20249;-84
2021/04/16 13:18:06;;;;;;;6.75;1.83;;;;;;;;;;4143703;34;20173;-85
2021/04/16 13:20:35;;;;;;;6.97;1.80;;;;;;;;;;4144791;34;20083;-84
2021/04/16 13:23:03;;;;;;;7.68;1.75;;;;;;;;;;4130391;34;20535;-84
2021/04/16 13:25:31;;;;;;;10.80;2.17;;;;;;;;;;4122601;34;20153;-85
2021/04/16 13:28:00;;;;;;;9.02;1.70;;;;;;;;;;4126944;34;20104;-84
2021/04/16 13:30:29;;;;;;;12.10;2.05;;;;;;;;;;4134647;34;20113;-84
2021/04/16 13:33:00;;;;;;;8.65;2.03;;;;;;;;;;4130080;34;20159;-84
2021/04/16 13:35:32;;;;;;;11.88;2.45;;;;;;;;;;4135499;34;20056;-85
2021/04/16 13:38:05;;;;;;;11.70;2.33;;;;;;;;;;4135183;34;20047;-84
2021/04/16 13:40:35;;;;;;;6.35;1.90;;;;;;;;;;4141174;34;20080;-84
2021/04/16 13:43:03;;;;;;;14.50;2.50;;;;;;;;;;4140745;34;20455;-84
2021/04/16 13:45:31;;;;;;;11.18;2.60;;;;;;;;;;4138306;34;20114;-84
2021/04/16 13:48:01;;;;;;;5.65;1.48;;;;;;;;;;4144583;34;20147;-84
2021/04/16 13:50:29;;;;;;;8.15;2.22;;;;;;;;;;4142469;34;20520;-84
2021/04/16 13:52:58;;;;;;;9.57;2.15;;;;;;;;;;4123941;34;20105;-84
2021/04/16 13:55:27;;;;;;;10.40;2.30;;;;;;;;;;4127474;34;20504;-84
2021/04/16 13:57:55;;;;;;;11.05;2.40;;;;;;;;;;4129623;34;20501;-84
2021/04/16 14:00:26;;;;;;;11.63;2.35;;;;;;;;;;4133308;34;20260;-84
2021/04/16 14:02:58;;;;;;;6.90;1.98;;;;;;;;;;4138080;34;20511;-84
2021/04/16 14:05:28;;;;;;;8.98;2.17;;;;;;;;;;4133939;34;20052;-84
2021/04/16 14:08:02;;;;;;;15.57;2.42;;;;;;;;;;4140531;34;20106;-83
2021/04/16 14:10:32;;;;;;;8.23;1.77;;;;;;;;;;4137235;34;20147;-84
2021/04/16 14:13:03;;;;;;;6.70;1.62;;;;;;;;;;4135945;34;20065;-84
2021/04/16 14:15:33;;;;;;;8.60;1.60;;;;;;;;;;4135737;34;20100;-84
2021/04/16 14:18:04;;;;;;;7.68;1.77;;;;;;;;;;4135002;34;20066;-84
2021/04/16 14:20:39;;;;;;;8.98;1.58;;;;;;;;;;4132767;34;20104;-84
2021/04/16 14:23:14;;;;;;;9.32;1.75;;;;;;;;;;4137079;34;20131;-83
2021/04/16 14:25:44;;;;;;;8.57;2.08;;;;;;;;;;4139095;34;20108;-84
2021/04/16 14:28:16;;;;;;;8.13;1.80;;;;;;;;;;4144704;34;21933;-84
2021/04/16 14:30:46;;;;;;;7.90;1.65;;;;;;;;;;4145616;34;21201;-83
2021/04/16 14:33:28;;;;;;;7.65;1.48;;;;;;;;;;4145155;34;20130;-84
2021/04/16 14:36:00;;;;;;;6.35;1.65;;;;;;;;;;4143027;34;20138;-84
2021/04/16 14:38:31;;;;;;;9.95;2.10;;;;;;;;;;4136262;34;20097;-83
2021/04/16 14:41:04;;;;;;;6.90;1.60;;;;;;;;;;4152015;34;20094;-83
2021/04/16 14:43:35;;;;;;;8.10;2.00;;;;;;;;;;4151979;34;20119;-83
2021/04/16 14:46:06;;;;;;;7.97;1.65;;;;;;;;;;4145983;34;20057;-84
2021/04/16 14:48:37;;;;;;;8.20;1.67;;;;;;;;;;4142771;34;20048;-84
2021/04/16 14:51:09;;;;;;;4.80;1.27;;;;;;;;;;4142800;34;20064;-84
2021/04/16 14:53:40;;;;;;;6.03;1.62;;;;;;;;;;4150360;34;20681;-84
2021/04/16 14:56:12;;;;;;;9.90;1.90;;;;;;;;;;4147642;34;20117;-84
2021/04/16 14:58:50;;;;;;;6.90;1.77;;;;;;;;;;4142769;34;20124;-84
2021/04/16 15:01:21;;;;;;;14.32;2.00;;;;;;;;;;4146613;34;21123;-83
2021/04/16 15:03:58;;;;;;;8.05;1.70;;;;;;;;;;4148565;34;20061;-84
2021/04/16 15:06:30;;;;;;;15.57;2.17;;;;;;;;;;4145517;34;20081;-85
2021/04/16 15:09:04;;;;;;;12.18;2.22;;;;;;;;;;4144444;34;20454;-84
2021/04/16 15:11:38;;;;;;;8.07;1.62;;;;;;;;;;4145805;34;20104;-84
2021/04/16 15:14:14;;;;;;;7.03;1.62;;;;;;;;;;4148282;34;20099;-84
2021/04/16 15:16:47;;;;;;;11.82;1.98;;;;;;;;;;4144892;34;20230;-84
2021/04/16 15:19:26;;;;;;;11.88;2.25;;;;;;;;;;4129419;34;20141;-83
2021/04/16 15:21:57;;;;;;;10.57;2.28;;;;;;;;;;4141855;34;20118;-84
2021/04/16 15:24:28;;;;;;;6.70;1.92;;;;;;;;;;4141996;34;20162;-84
2021/04/16 15:26:59;;;;;;;6.93;1.62;;;;;;;;;;4142920;34;20803;-84
2021/04/16 15:29:41;;;;;;;7.25;1.60;;;;;;;;;;4150553;34;20112;-84
2021/04/16 15:32:13;;;;;;;13.10;2.12;;;;;;;;;;4148246;34;20076;-84
2021/04/16 15:46:42;;;;;;;8.35;1.77;;;;;;;;;;4143343;34;20115;-83
2021/04/16 15:49:14;;;;;;;9.93;1.65;;;;;;;;;;4129430;34;20130;-84
2021/04/16 15:51:45;;;;;;;8.82;1.67;;;;;;;;;;4146003;34;20972;-85
2021/04/16 15:54:15;;;;;;;10.50;2.00;;;;;;;;;;4146172;34;20558;-84
2021/04/16 15:56:47;;;;;;;7.93;1.42;;;;;;;;;;4146788;34;20082;-84
2021/04/16 15:59:20;;;;;;;4.47;1.33;;;;;;;;;;4144908;34;20084;-85
2021/04/16 16:01:51;;;;;;;6.67;1.40;;;;;;;;;;4135580;34;20084;-84
2021/04/16 16:04:22;;;;;;;11.18;1.62;;;;;;;;;;4134732;34;20052;-84
2021/04/16 16:06:51;;;;;;;9.90;1.65;;;;;;;;;;4146659;34;20059;-85
2021/04/16 16:09:21;;;;;;;7.65;1.25;;;;;;;;;;4143947;34;20529;-84
2021/04/16 16:12:07;;;;;;;6.05;1.25;;;;;;;;;;4145808;34;20180;-83
2021/04/16 16:14:43;;;;;;;7.62;1.27;;;;;;;;;;4136222;34;20083;-85
2021/04/16 16:17:19;;;;;;;7.70;1.52;;;;;;;;;;4148958;34;20064;-83
2021/04/16 16:19:50;;;;;;;10.73;1.35;;;;;;;;;;4141658;34;20138;-83
2021/04/16 16:22:22;;;;;;;8.07;1.30;;;;;;;;;;4134890;34;20181;-84
2021/04/16 16:24:52;;;;;;;8.82;1.40;;;;;;;;;;4126902;34;20140;-83
2021/04/16 16:27:24;;;;;;;7.43;1.27;;;;;;;;;;4134421;34;20152;-84
2021/04/16 16:29:55;;;;;;;10.30;1.52;;;;;;;;;;4137475;34;20161;-83
2021/04/16 16:32:30;;;;;;;8.13;1.62;;;;;;;;;;4136322;34;21644;-84
2021/04/16 16:35:00;;;;;;;7.53;1.60;;;;;;;;;;4136503;34;20069;-84
2021/04/16 16:37:32;;;;;;;6.53;1.00;;;;;;;;;;4137356;34;20060;-84
2021/04/16 16:40:03;;;;;;;8.35;1.48;;;;;;;;;;4134040;34;20228;-85
2021/04/16 16:42:44;;;;;;;6.68;1.02;;;;;;;;;;4131234;34;20448;-85
2021/04/16 16:45:23;;;;;;;5.78;1.40;;;;;;;;;;4128068;34;20524;-83
2021/04/16 16:47:54;;;;;;;11.02;1.75;;;;;;;;;;4130994;34;20485;-83
2021/04/16 16:50:29;;;;;;;9.07;1.48;;;;;;;;;;4134408;34;20128;-83
2021/04/16 16:52:59;;;;;;;6.25;1.30;;;;;;;;;;4134506;34;20092;-83
2021/04/16 16:55:28;;;;;;;8.32;1.35;;;;;;;;;;4140127;34;20066;-84
2021/04/16 16:58:20;;;;;;;8.73;1.50;;;;;;;;;;4130833;34;20510;-84
2021/04/16 17:00:52;;;;;;;8.50;1.80;;;;;;;;;;4131217;34;20114;-85
2021/04/16 17:03:22;;;;;;;8.07;1.62;;;;;;;;;;4136995;34;20106;-84
2021/04/16 17:05:54;;;;;;;9.13;1.75;;;;;;;;;;4142343;34;20423;-83
2021/04/16 17:08:23;;;;;;;6.07;1.33;;;;;;;;;;4139360;34;20416;-84
2021/04/16 17:10:51;;;;;;;6.87;1.40;;;;;;;;;;4136700;34;20550;-84
2021/04/16 17:13:21;;;;;;;6.75;1.52;;;;;;;;;;4135537;34;20100;-83
2021/04/16 17:15:52;;;;;;;8.95;1.40;;;;;;;;;;4141124;34;20619;-84
2021/04/16 17:18:21;;;;;;;7.30;1.15;;;;;;;;;;4143476;34;20158;-85
2021/04/16 17:20:50;;;;;;;6.70;1.15;;;;;;;;;;4132345;34;20157;-84
2021/04/16 17:23:19;;;;;;;8.23;1.55;;;;;;;;;;4145416;34;20056;-84
2021/04/16 17:25:47;;;;;;;9.63;1.60;;;;;;;;;;4150994;34;20052;-84
2021/04/16 17:28:22;;;;;;;5.20;1.25;;;;;;;;;;4149234;34;20109;-84
2021/04/16 17:30:50;;;;;;;7.75;1.60;;;;;;;;;;4145270;34;20429;-84